« Back
NWS Peachtree City, Ga » Text Product » MCN Terminal Aerodrome Forecast


Printer-friendly Version
Current Version              Previous Versions:   1  2  3  4  5  6  7  8  9  

Terminal Aerodrome Forecast

516
FTUS42 KFFC 301428 AAC
TAFMCN
TAF AMD
KMCN 301428Z 3014/3112 12004KT 6SM BR BKN010
     FM301500 12005KT P6SM SCT020
     FM301700 12006KT P6SM SCT040
     FM310100 00000KT P6SM FEW060
     FM310900 00000KT P6SM BKN012=

USA.gov is the U.S. government's official web portal to all federal, state and local government web resources and services.